sensor_id;sensor_type;location;lat;lon;timestamp;pressure;altitude;pressure_sealevel;temperature;humidity
36788;BME280;22738;45.560;9.434;2023-02-23T00:03:11;99820.81;;;10.69;100.00
36788;BME280;22738;45.560;9.434;2023-02-23T00:09:52;99816.25;;;10.73;100.00
36788;BME280;22738;45.560;9.434;2023-02-23T00:16:33;99809.63;;;10.69;100.00
36788;BME280;22738;45.560;9.434;2023-02-23T00:23:14;99815.00;;;10.66;100.00
36788;BME280;22738;45.560;9.434;2023-02-23T00:29:55;99812.41;;;10.66;100.00
36788;BME280;22738;45.560;9.434;2023-02-23T00:36:36;99810.53;;;10.68;100.00
36788;BME280;22738;45.560;9.434;2023-02-23T00:43:19;99804.53;;;10.67;100.00
36788;BME280;22738;45.560;9.434;2023-02-23T00:50:05;99802.56;;;10.71;100.00
36788;BME280;22738;45.560;9.434;2023-02-23T00:56:47;99809.25;;;10.61;100.00
36788;BME280;22738;45.560;9.434;2023-02-23T01:03:29;99796.47;;;10.45;100.00
36788;BME280;22738;45.560;9.434;2023-02-23T01:10:11;99798.97;;;10.47;100.00
36788;BME280;22738;45.560;9.434;2023-02-23T01:17:02;99793.56;;;10.50;100.00
36788;BME280;22738;45.560;9.434;2023-02-23T01:23:43;99789.81;;;10.41;100.00
36788;BME280;22738;45.560;9.434;2023-02-23T01:30:24;99796.47;;;10.45;100.00
36788;BME280;22738;45.560;9.434;2023-02-23T01:37:05;99786.09;;;10.45;100.00
36788;BME280;22738;45.560;9.434;2023-02-23T01:57:39;99774.16;;;10.43;100.00
36788;BME280;22738;45.560;9.434;2023-02-23T02:04:22;99768.25;;;10.41;100.00
36788;BME280;22738;45.560;9.434;2023-02-23T02:11:05;99780.09;;;10.45;100.00
36788;BME280;22738;45.560;9.434;2023-02-23T02:39:25;99753.72;;;10.38;100.00
36788;BME280;22738;45.560;9.434;2023-02-23T02:46:25;99745.34;;;10.35;100.00
36788;BME280;22738;45.560;9.434;2023-02-23T02:53:10;99750.53;;;10.35;100.00
36788;BME280;22738;45.560;9.434;2023-02-23T02:59:56;99748.56;;;10.38;100.00
36788;BME280;22738;45.560;9.434;2023-02-23T03:07:04;99738.88;;;10.28;100.00
36788;BME280;22738;45.560;9.434;2023-02-23T03:21:30;99745.75;;;10.29;100.00
36788;BME280;22738;45.560;9.434;2023-02-23T03:28:36;99748.22;;;10.30;100.00
36788;BME280;22738;45.560;9.434;2023-02-23T03:35:45;99741.28;;;10.31;100.00
36788;BME280;22738;45.560;9.434;2023-02-23T03:42:50;99734.63;;;10.27;100.00
36788;BME280;22738;45.560;9.434;2023-02-23T03:49:55;99739.94;;;10.11;100.00
36788;BME280;22738;45.560;9.434;2023-02-23T03:56:58;99734.13;;;10.07;100.00
36788;BME280;22738;45.560;9.434;2023-02-23T04:04:00;99734.31;;;10.04;100.00
36788;BME280;22738;45.560;9.434;2023-02-23T04:11:39;99751.69;;;10.02;100.00
36788;BME280;22738;45.560;9.434;2023-02-23T04:18:44;99737.63;;;10.06;100.00
36788;BME280;22738;45.560;9.434;2023-02-23T04:25:26;99745.97;;;10.12;100.00
36788;BME280;22738;45.560;9.434;2023-02-23T04:32:12;99747.44;;;10.16;100.00
36788;BME280;22738;45.560;9.434;2023-02-23T04:38:55;99756.16;;;10.15;100.00
36788;BME280;22738;45.560;9.434;2023-02-23T04:45:36;99754.41;;;10.01;100.00
36788;BME280;22738;45.560;9.434;2023-02-23T04:52:17;99755.53;;;9.97;100.00
36788;BME280;22738;45.560;9.434;2023-02-23T04:58:58;99763.00;;;10.01;100.00
36788;BME280;22738;45.560;9.434;2023-02-23T05:05:40;99756.16;;;10.15;100.00
36788;BME280;22738;45.560;9.434;2023-02-23T05:12:21;99760.97;;;9.92;100.00
36788;BME280;22738;45.560;9.434;2023-02-23T05:19:02;99760.25;;;9.76;100.00
36788;BME280;22738;45.560;9.434;2023-02-23T05:25:43;99762.56;;;9.81;100.00
36788;BME280;22738;45.560;9.434;2023-02-23T05:32:24;99751.94;;;9.85;100.00
36788;BME280;22738;45.560;9.434;2023-02-23T05:39:05;99751.53;;;9.91;100.00
36788;BME280;22738;45.560;9.434;2023-02-23T05:45:46;99745.75;;;9.88;100.00
36788;BME280;22738;45.560;9.434;2023-02-23T05:52:27;99747.66;;;9.84;100.00
36788;BME280;22738;45.560;9.434;2023-02-23T05:59:08;99753.03;;;9.81;100.00
36788;BME280;22738;45.560;9.434;2023-02-23T06:05:50;99762.34;;;9.84;100.00
36788;BME280;22738;45.560;9.434;2023-02-23T06:12:32;99759.88;;;9.82;100.00
36788;BME280;22738;45.560;9.434;2023-02-23T06:19:13;99779.47;;;9.86;100.00
36788;BME280;22738;45.560;9.434;2023-02-23T06:25:54;99781.03;;;9.89;100.00
36788;BME280;22738;45.560;9.434;2023-02-23T06:32:35;99782.78;;;9.88;100.00
36788;BME280;22738;45.560;9.434;2023-02-23T06:39:18;99784.81;;;9.97;100.00
36788;BME280;22738;45.560;9.434;2023-02-23T06:45:59;99789.97;;;9.97;100.00
36788;BME280;22738;45.560;9.434;2023-02-23T06:52:40;99814.22;;;9.96;100.00
36788;BME280;22738;45.560;9.434;2023-02-23T06:59:21;99813.66;;;9.91;100.00
36788;BME280;22738;45.560;9.434;2023-02-23T07:06:04;99818.84;;;10.05;100.00
36788;BME280;22738;45.560;9.434;2023-02-23T07:12:45;99821.22;;;10.23;100.00
36788;BME280;22738;45.560;9.434;2023-02-23T07:19:26;99819.56;;;10.36;100.00
36788;BME280;22738;45.560;9.434;2023-02-23T07:26:08;99825.81;;;10.46;100.00
36788;BME280;22738;45.560;9.434;2023-02-23T07:32:52;99825.75;;;10.60;100.00
36788;BME280;22738;45.560;9.434;2023-02-23T07:39:33;99835.34;;;10.72;100.00
36788;BME280;22738;45.560;9.434;2023-02-23T07:46:13;99838.28;;;10.93;100.00
36788;BME280;22738;45.560;9.434;2023-02-23T07:52:55;99846.63;;;10.98;100.00
36788;BME280;22738;45.560;9.434;2023-02-23T07:59:36;99850.59;;;11.03;100.00
36788;BME280;22738;45.560;9.434;2023-02-23T08:06:19;99837.53;;;11.17;100.00
36788;BME280;22738;45.560;9.434;2023-02-23T08:13:00;99839.00;;;11.21;100.00
36788;BME280;22738;45.560;9.434;2023-02-23T08:19:41;99837.56;;;11.42;100.00
36788;BME280;22738;45.560;9.434;2023-02-23T08:26:22;99839.31;;;11.55;100.00
36788;BME280;22738;45.560;9.434;2023-02-23T08:33:05;99840.56;;;11.36;100.00
36788;BME280;22738;45.560;9.434;2023-02-23T08:39:46;99845.03;;;11.60;100.00
36788;BME280;22738;45.560;9.434;2023-02-23T08:46:27;99838.72;;;11.89;100.00
36788;BME280;22738;45.560;9.434;2023-02-23T08:53:08;99845.03;;;12.10;100.00
36788;BME280;22738;45.560;9.434;2023-02-23T08:59:50;99853.50;;;12.25;100.00
36788;BME280;22738;45.560;9.434;2023-02-23T09:06:32;99852.63;;;12.49;100.00
36788;BME280;22738;45.560;9.434;2023-02-23T09:13:14;99853.81;;;12.56;100.00
36788;BME280;22738;45.560;9.434;2023-02-23T09:19:57;99856.88;;;12.98;100.00
36788;BME280;22738;45.560;9.434;2023-02-23T09:26:40;99858.47;;;13.46;100.00
36788;BME280;22738;45.560;9.434;2023-02-23T09:33:22;99853.19;;;13.92;100.00
36788;BME280;22738;45.560;9.434;2023-02-23T09:40:03;99855.53;;;13.62;100.00
36788;BME280;22738;45.560;9.434;2023-02-23T09:54:05;99856.63;;;14.37;100.00
36788;BME280;22738;45.560;9.434;2023-02-23T10:01:16;99864.81;;;14.21;100.00
36788;BME280;22738;45.560;9.434;2023-02-23T10:08:05;99861.38;;;14.09;100.00
36788;BME280;22738;45.560;9.434;2023-02-23T10:21:55;99868.09;;;14.67;100.00
36788;BME280;22738;45.560;9.434;2023-02-23T10:28:36;99862.50;;;14.92;100.00
36788;BME280;22738;45.560;9.434;2023-02-23T10:35:19;99864.84;;;14.75;100.00
36788;BME280;22738;45.560;9.434;2023-02-23T10:42:06;99855.00;;;15.31;100.00
36788;BME280;22738;45.560;9.434;2023-02-23T10:48:53;99863.56;;;15.74;100.00
36788;BME280;22738;45.560;9.434;2023-02-23T10:55:36;99854.34;;;15.80;100.00
36788;BME280;22738;45.560;9.434;2023-02-23T11:02:23;99849.06;;;16.40;100.00
36788;BME280;22738;45.560;9.434;2023-02-23T11:09:29;99841.16;;;16.70;100.00
36788;BME280;22738;45.560;9.434;2023-02-23T11:16:19;99846.88;;;16.45;100.00
36788;BME280;22738;45.560;9.434;2023-02-23T11:23:08;99837.31;;;16.74;100.00
36788;BME280;22738;45.560;9.434;2023-02-23T11:29:53;99831.38;;;16.72;100.00
36788;BME280;22738;45.560;9.434;2023-02-23T11:36:36;99833.44;;;16.59;100.00
36788;BME280;22738;45.560;9.434;2023-02-23T11:43:17;99831.53;;;16.71;100.00
36788;BME280;22738;45.560;9.434;2023-02-23T11:49:58;99830.81;;;16.88;100.00
36788;BME280;22738;45.560;9.434;2023-02-23T11:56:48;99815.00;;;16.89;100.00
36788;BME280;22738;45.560;9.434;2023-02-23T12:03:34;99805.44;;;17.27;100.00
36788;BME280;22738;45.560;9.434;2023-02-23T12:10:28;99801.19;;;17.06;100.00
36788;BME280;22738;45.560;9.434;2023-02-23T12:17:26;99791.25;;;17.20;100.00
36788;BME280;22738;45.560;9.434;2023-02-23T12:24:51;99783.28;;;17.11;100.00
36788;BME280;22738;45.560;9.434;2023-02-23T12:31:24;99778.06;;;16.92;100.00
36788;BME280;22738;45.560;9.434;2023-02-23T12:38:16;99778.63;;;16.86;100.00
36788;BME280;22738;45.560;9.434;2023-02-23T12:45:04;99776.16;;;16.75;100.00
36788;BME280;22738;45.560;9.434;2023-02-23T12:52:00;99769.81;;;16.87;100.00
36788;BME280;22738;45.560;9.434;2023-02-23T13:20:46;99754.09;;;16.68;100.00
36788;BME280;22738;45.560;9.434;2023-02-23T13:27:36;99737.66;;;16.47;100.00
36788;BME280;22738;45.560;9.434;2023-02-23T13:34:26;99751.56;;;16.38;100.00
36788;BME280;22738;45.560;9.434;2023-02-23T13:54:59;99740.22;;;15.90;100.00
36788;BME280;22738;45.560;9.434;2023-02-23T14:01:48;99742.34;;;16.24;100.00
36788;BME280;22738;45.560;9.434;2023-02-23T14:08:40;99737.75;;;15.98;100.00
36788;BME280;22738;45.560;9.434;2023-02-23T14:22:17;99729.78;;;15.59;100.00
36788;BME280;22738;45.560;9.434;2023-02-23T14:29:27;99723.34;;;15.63;100.00
36788;BME280;22738;45.560;9.434;2023-02-23T14:43:32;99731.88;;;15.65;100.00
36788;BME280;22738;45.560;9.434;2023-02-23T14:50:26;99732.66;;;15.56;100.00
36788;BME280;22738;45.560;9.434;2023-02-23T15:04:05;99721.84;;;15.40;100.00
36788;BME280;22738;45.560;9.434;2023-02-23T15:10:49;99729.50;;;15.32;100.00
36788;BME280;22738;45.560;9.434;2023-02-23T15:17:32;99720.38;;;15.17;100.00
36788;BME280;22738;45.560;9.434;2023-02-23T15:24:14;99723.94;;;15.16;100.00
36788;BME280;22738;45.560;9.434;2023-02-23T15:31:01;99721.19;;;15.18;100.00
36788;BME280;22738;45.560;9.434;2023-02-23T15:37:46;99719.69;;;14.94;100.00
36788;BME280;22738;45.560;9.434;2023-02-23T15:44:29;99708.72;;;15.00;100.00
36788;BME280;22738;45.560;9.434;2023-02-23T15:58:23;99706.75;;;14.52;100.00
36788;BME280;22738;45.560;9.434;2023-02-23T16:05:18;99711.25;;;14.50;100.00
36788;BME280;22738;45.560;9.434;2023-02-23T16:12:03;99714.41;;;14.33;100.00
36788;BME280;22738;45.560;9.434;2023-02-23T16:18:53;99716.84;;;14.45;100.00
36788;BME280;22738;45.560;9.434;2023-02-23T16:25:42;99718.44;;;14.37;100.00
36788;BME280;22738;45.560;9.434;2023-02-23T16:32:32;99714.56;;;14.09;100.00
36788;BME280;22738;45.560;9.434;2023-02-23T16:39:14;99718.94;;;14.08;100.00
36788;BME280;22738;45.560;9.434;2023-02-23T16:45:57;99716.41;;;13.86;100.00
36788;BME280;22738;45.560;9.434;2023-02-23T16:52:39;99711.69;;;13.80;100.00
36788;BME280;22738;45.560;9.434;2023-02-23T16:59:22;99716.44;;;13.75;100.00
36788;BME280;22738;45.560;9.434;2023-02-23T17:06:05;99713.00;;;13.64;100.00
36788;BME280;22738;45.560;9.434;2023-02-23T17:12:46;99724.63;;;13.59;100.00
36788;BME280;22738;45.560;9.434;2023-02-23T17:19:27;99729.22;;;13.45;100.00
36788;BME280;22738;45.560;9.434;2023-02-23T17:26:10;99729.22;;;13.45;100.00
36788;BME280;22738;45.560;9.434;2023-02-23T17:32:54;99737.28;;;13.31;100.00
36788;BME280;22738;45.560;9.434;2023-02-23T17:39:35;99741.03;;;13.27;100.00
36788;BME280;22738;45.560;9.434;2023-02-23T17:46:17;99748.16;;;13.25;100.00
36788;BME280;22738;45.560;9.434;2023-02-23T17:52:58;99758.06;;;13.20;100.00
36788;BME280;22738;45.560;9.434;2023-02-23T17:59:39;99775.38;;;12.97;100.00
36788;BME280;22738;45.560;9.434;2023-02-23T18:06:22;99784.00;;;12.98;100.00
36788;BME280;22738;45.560;9.434;2023-02-23T18:13:05;99782.81;;;12.90;100.00
36788;BME280;22738;45.560;9.434;2023-02-23T18:19:46;99780.47;;;12.87;100.00
36788;BME280;22738;45.560;9.434;2023-02-23T18:26:28;99779.00;;;12.83;100.00
36788;BME280;22738;45.560;9.434;2023-02-23T18:33:10;99780.78;;;12.83;100.00
36788;BME280;22738;45.560;9.434;2023-02-23T18:39:51;99786.75;;;12.72;100.00
36788;BME280;22738;45.560;9.434;2023-02-23T18:46:34;99795.75;;;12.68;100.00
36788;BME280;22738;45.560;9.434;2023-02-23T18:53:15;99797.13;;;12.61;100.00
36788;BME280;22738;45.560;9.434;2023-02-23T18:59:56;99798.97;;;12.48;100.00
36788;BME280;22738;45.560;9.434;2023-02-23T19:06:41;99803.91;;;12.40;100.00
36788;BME280;22738;45.560;9.434;2023-02-23T19:13:22;99809.81;;;12.42;100.00
36788;BME280;22738;45.560;9.434;2023-02-23T19:20:04;99819.97;;;12.45;100.00
36788;BME280;22738;45.560;9.434;2023-02-23T19:26:52;99825.16;;;12.45;100.00
36788;BME280;22738;45.560;9.434;2023-02-23T19:33:34;99819.38;;;12.42;100.00
36788;BME280;22738;45.560;9.434;2023-02-23T19:40:20;99820.41;;;12.39;100.00
36788;BME280;22738;45.560;9.434;2023-02-23T19:47:02;99828.47;;;12.47;100.00
36788;BME280;22738;45.560;9.434;2023-02-23T19:53:43;99828.16;;;12.28;100.00
36788;BME280;22738;45.560;9.434;2023-02-23T20:00:25;99836.78;;;12.29;100.00
36788;BME280;22738;45.560;9.434;2023-02-23T20:07:06;99833.09;;;12.31;100.00
36788;BME280;22738;45.560;9.434;2023-02-23T20:13:52;99835.44;;;12.23;100.00
36788;BME280;22738;45.560;9.434;2023-02-23T20:20:34;99833.75;;;12.22;100.00
36788;BME280;22738;45.560;9.434;2023-02-23T20:27:16;99846.06;;;12.07;100.00
36788;BME280;22738;45.560;9.434;2023-02-23T20:34:01;99849.19;;;12.00;100.00
36788;BME280;22738;45.560;9.434;2023-02-23T20:40:43;99851.06;;;11.98;100.00
36788;BME280;22738;45.560;9.434;2023-02-23T20:47:25;99851.81;;;11.87;100.00
36788;BME280;22738;45.560;9.434;2023-02-23T20:54:07;99850.97;;;11.87;100.00
36788;BME280;22738;45.560;9.434;2023-02-23T21:00:51;99855.25;;;11.88;100.00
36788;BME280;22738;45.560;9.434;2023-02-23T21:07:34;99868.63;;;11.82;100.00
36788;BME280;22738;45.560;9.434;2023-02-23T21:14:15;99873.75;;;11.83;100.00
36788;BME280;22738;45.560;9.434;2023-02-23T21:20:58;99868.03;;;11.78;100.00
36788;BME280;22738;45.560;9.434;2023-02-23T21:27:47;99870.22;;;11.72;100.00
36788;BME280;22738;45.560;9.434;2023-02-23T21:34:28;99875.41;;;11.72;100.00
36788;BME280;22738;45.560;9.434;2023-02-23T21:41:11;99869.78;;;11.65;100.00
36788;BME280;22738;45.560;9.434;2023-02-23T21:47:52;99856.88;;;11.64;100.00
36788;BME280;22738;45.560;9.434;2023-02-23T21:54:33;99844.59;;;11.40;100.00
36788;BME280;22738;45.560;9.434;2023-02-23T22:01:19;99841.09;;;11.41;100.00
36788;BME280;22738;45.560;9.434;2023-02-23T22:08:01;99840.06;;;11.44;100.00
36788;BME280;22738;45.560;9.434;2023-02-23T22:14:42;99841.28;;;11.38;100.00
36788;BME280;22738;45.560;9.434;2023-02-23T22:21:23;99843.56;;;11.43;100.00
36788;BME280;22738;45.560;9.434;2023-02-23T22:28:05;99835.69;;;11.44;100.00
36788;BME280;22738;45.560;9.434;2023-02-23T22:34:48;99842.53;;;11.45;100.00
36788;BME280;22738;45.560;9.434;2023-02-23T22:41:29;99838.06;;;11.47;100.00
36788;BME280;22738;45.560;9.434;2023-02-23T22:48:12;99845.06;;;11.47;100.00
36788;BME280;22738;45.560;9.434;2023-02-23T22:54:54;99840.91;;;11.44;100.00
36788;BME280;22738;45.560;9.434;2023-02-23T23:01:37;99830.50;;;11.44;100.00
36788;BME280;22738;45.560;9.434;2023-02-23T23:08:18;99826.56;;;11.26;100.00
36788;BME280;22738;45.560;9.434;2023-02-23T23:14:59;99822.78;;;11.18;100.00
36788;BME280;22738;45.560;9.434;2023-02-23T23:21:43;99823.63;;;11.18;100.00
36788;BME280;22738;45.560;9.434;2023-02-23T23:28:25;99810.84;;;11.15;100.00
36788;BME280;22738;45.560;9.434;2023-02-23T23:35:08;99809.94;;;11.16;100.00
36788;BME280;22738;45.560;9.434;2023-02-23T23:41:54;99803.28;;;11.12;100.00
36788;BME280;22738;45.560;9.434;2023-02-23T23:48:35;99806.38;;;11.05;100.00
36788;BME280;22738;45.560;9.434;2023-02-23T23:55:18;99813.41;;;10.90;100.00
